Greater Binghamton/Edwin A Link field
KBGM : now visible

Airfield :











YOU CAN JOIN US ON...

 
LOGIN :

Register | Disclaimer

   EN    FR    IT 

 









Legend :    VFR   Marginal VFR   IFR   Intensive IFR   Very Intensive IFR
Visi :
Ceiling :
>= 8 km
>= 3000ft
5 to 8 km
1000 to 3000 ft
1500m to 5 km
500 to 1000 ft
800 to 1500m
200 to 500 ft
< 800m
< 200 ft
Symbols :   Thunderstorms  Fog  Heavy snow  Heavy precipitations  Wind > 20 kt






- Airport Elevation : 1636 ft
- IATA code : BGM


KBGM - Greater Binghamton/Edwin A Link field

CURRENT METAR :
  • 261712Z 12013KT 1/2SM SN FZFG FEW006 OVC012 M05/M07 A2978 RMK AO2 P0002 T10501067 RVRNO

EXPIRED METARs :
  • 261653Z 13013G17KT 1/4SM SN FZFG FEW006 OVC014 M05/M06 A2980 RMK AO2 TWR VIS 1 1/2 SLP113 P0008 T10501061 RVRNO
  • 261634Z 13014KT 1/2SM -SN FZFG FEW006 OVC010 M06/M07 A2980 RMK AO2 TWR VIS 1 1/2 PRESFR P0006 T10561067 RVRNO
  • 261615Z 15012KT 1/4SM +SN FZFG VV008 M06/M07 A2984 RMK AO2 TWR VIS 1 1/2 P0002 T10561067 RVRNO
  • 261553Z 14010KT 1/4SM SN FZFG VV011 M06/M07 A2984 RMK AO2 TWR VIS 1 1/2 SNB01 SLP127 P0002 T10561072 RVRNO
  • 261533Z 14013KT 1/2SM SN FZFG BKN017 OVC029 M05/M07 A2983 RMK AO2 TWR VIS 1 1/2 SNB01 P0000 T10501072 RVRNO
  • 261508Z 14015G21KT 1 1/2SM -SN OVC026 M04/M09 A2984 RMK AO2 SFC VIS 1 3/4 SNB01 P0000 T10441089
  • 261453Z 14014KT 10SM BKN025 OVC035 M04/M10 A2985 RMK AO2 SLP130 T10391100 58008

TAF KBGM
Valid from the 26 at 17:00 until the 27 at 12:00 UTC


261636Z 2617/2712 15012KT 1/2SM SN OVC008
TEMPO 2617/2618 1/4SM +SN OVC005
FM261800 16012G22KT 3SM -SHSNPL BR OVC018
FM262100 17010G19KT 5SM -FZDZ BR VCSH OVC015
FM270000 15011G19KT 5SM -SHSN BR OVC008
FM270500 21007KT 3SM BR OVC007
KZNY FIR / North America



MET'MAP, your aeronautical weather chart ! - Copyright ORBIFLY December 2007 - Disclaimer

ORBIFLY MET'MAP TEAM :

Programming & Development : Alexandra Zaïnal
Concept & original design : Baudouin d'Aumeries
Assistance for programming : Marc-Olivier Méhu
Technical & hardware support : Manuel Goepfert

Contact : metmap@orbifly.com




SOURCES & CREDITS :

   NOAA       Earth
Advisory